sensor_id;sensor_type;location;lat;lon;timestamp;P1;durP1;ratioP1;P2;durP2;ratioP2
3133;SDS011;1577;49.912;10.924;2023-09-19T00:00:26;3.23;;;2.10;;
3133;SDS011;1577;49.912;10.924;2023-09-19T00:02:56;5.73;;;2.27;;
3133;SDS011;1577;49.912;10.924;2023-09-19T00:05:22;5.40;;;2.00;;
3133;SDS011;1577;49.912;10.924;2023-09-19T00:07:49;4.17;;;2.27;;
3133;SDS011;1577;49.912;10.924;2023-09-19T00:10:18;5.17;;;2.17;;
3133;SDS011;1577;49.912;10.924;2023-09-19T00:12:46;3.27;;;1.90;;
3133;SDS011;1577;49.912;10.924;2023-09-19T00:15:12;6.47;;;1.93;;
3133;SDS011;1577;49.912;10.924;2023-09-19T00:17:38;4.20;;;2.10;;
3133;SDS011;1577;49.912;10.924;2023-09-19T00:20:06;3.67;;;1.80;;
3133;SDS011;1577;49.912;10.924;2023-09-19T00:22:33;4.00;;;1.80;;
3133;SDS011;1577;49.912;10.924;2023-09-19T00:24:59;4.40;;;1.90;;
3133;SDS011;1577;49.912;10.924;2023-09-19T00:27:25;3.50;;;1.90;;
3133;SDS011;1577;49.912;10.924;2023-09-19T00:29:51;3.90;;;1.63;;
3133;SDS011;1577;49.912;10.924;2023-09-19T00:32:18;6.80;;;2.07;;
3133;SDS011;1577;49.912;10.924;2023-09-19T00:34:43;5.47;;;2.23;;
3133;SDS011;1577;49.912;10.924;2023-09-19T00:37:09;6.93;;;1.87;;
3133;SDS011;1577;49.912;10.924;2023-09-19T00:39:36;5.80;;;1.83;;
3133;SDS011;1577;49.912;10.924;2023-09-19T00:42:02;3.83;;;1.83;;
3133;SDS011;1577;49.912;10.924;2023-09-19T00:44:30;3.50;;;1.67;;
3133;SDS011;1577;49.912;10.924;2023-09-19T00:46:55;3.60;;;1.80;;
3133;SDS011;1577;49.912;10.924;2023-09-19T00:49:21;3.63;;;2.17;;
3133;SDS011;1577;49.912;10.924;2023-09-19T00:51:48;4.87;;;2.13;;
3133;SDS011;1577;49.912;10.924;2023-09-19T00:54:13;4.80;;;1.90;;
3133;SDS011;1577;49.912;10.924;2023-09-19T00:56:43;4.77;;;1.47;;
3133;SDS011;1577;49.912;10.924;2023-09-19T00:59:10;4.40;;;1.80;;
3133;SDS011;1577;49.912;10.924;2023-09-19T01:01:36;3.00;;;1.70;;
3133;SDS011;1577;49.912;10.924;2023-09-19T01:04:04;4.50;;;1.97;;
3133;SDS011;1577;49.912;10.924;2023-09-19T01:06:30;3.73;;;2.07;;
3133;SDS011;1577;49.912;10.924;2023-09-19T01:08:56;3.87;;;1.67;;
3133;SDS011;1577;49.912;10.924;2023-09-19T01:11:30;3.30;;;1.73;;
3133;SDS011;1577;49.912;10.924;2023-09-19T01:14:14;8.00;;;1.83;;
3133;SDS011;1577;49.912;10.924;2023-09-19T01:17:07;3.83;;;1.60;;
3133;SDS011;1577;49.912;10.924;2023-09-19T01:22:35;5.20;;;1.67;;
3133;SDS011;1577;49.912;10.924;2023-09-19T01:30:47;2.53;;;1.50;;
3133;SDS011;1577;49.912;10.924;2023-09-19T01:33:16;3.70;;;1.50;;
3133;SDS011;1577;49.912;10.924;2023-09-19T01:35:42;3.80;;;1.40;;
3133;SDS011;1577;49.912;10.924;2023-09-19T01:38:07;3.10;;;1.53;;
3133;SDS011;1577;49.912;10.924;2023-09-19T01:40:39;3.90;;;1.40;;
3133;SDS011;1577;49.912;10.924;2023-09-19T01:43:09;4.17;;;2.03;;
3133;SDS011;1577;49.912;10.924;2023-09-19T01:48:58;2.10;;;1.30;;
3133;SDS011;1577;49.912;10.924;2023-09-19T01:51:42;3.20;;;1.30;;
3133;SDS011;1577;49.912;10.924;2023-09-19T01:54:16;3.37;;;1.40;;
3133;SDS011;1577;49.912;10.924;2023-09-19T01:56:53;3.80;;;1.33;;
3133;SDS011;1577;49.912;10.924;2023-09-19T01:59:36;4.00;;;1.47;;
3133;SDS011;1577;49.912;10.924;2023-09-19T02:02:06;2.97;;;1.40;;
3133;SDS011;1577;49.912;10.924;2023-09-19T02:04:33;4.60;;;1.57;;
3133;SDS011;1577;49.912;10.924;2023-09-19T02:07:02;3.27;;;1.20;;
3133;SDS011;1577;49.912;10.924;2023-09-19T02:09:30;2.00;;;1.37;;
3133;SDS011;1577;49.912;10.924;2023-09-19T02:11:56;1.60;;;1.20;;
3133;SDS011;1577;49.912;10.924;2023-09-19T02:14:21;3.27;;;1.50;;
3133;SDS011;1577;49.912;10.924;2023-09-19T02:16:47;2.13;;;1.13;;
3133;SDS011;1577;49.912;10.924;2023-09-19T02:19:14;3.27;;;1.20;;
3133;SDS011;1577;49.912;10.924;2023-09-19T02:21:40;2.60;;;1.03;;
3133;SDS011;1577;49.912;10.924;2023-09-19T02:24:06;2.10;;;1.20;;
3133;SDS011;1577;49.912;10.924;2023-09-19T02:26:33;2.07;;;1.10;;
3133;SDS011;1577;49.912;10.924;2023-09-19T02:29:01;3.23;;;1.20;;
3133;SDS011;1577;49.912;10.924;2023-09-19T02:31:29;3.87;;;1.40;;
3133;SDS011;1577;49.912;10.924;2023-09-19T02:33:55;3.53;;;1.27;;
3133;SDS011;1577;49.912;10.924;2023-09-19T02:36:21;3.50;;;1.30;;
3133;SDS011;1577;49.912;10.924;2023-09-19T02:38:48;1.83;;;1.00;;
3133;SDS011;1577;49.912;10.924;2023-09-19T02:41:14;3.10;;;1.20;;
3133;SDS011;1577;49.912;10.924;2023-09-19T02:43:40;2.03;;;1.00;;
3133;SDS011;1577;49.912;10.924;2023-09-19T02:46:05;3.20;;;1.00;;
3133;SDS011;1577;49.912;10.924;2023-09-19T02:48:31;2.67;;;1.10;;
3133;SDS011;1577;49.912;10.924;2023-09-19T02:50:59;2.27;;;1.20;;
3133;SDS011;1577;49.912;10.924;2023-09-19T02:53:25;4.20;;;1.10;;
3133;SDS011;1577;49.912;10.924;2023-09-19T02:55:50;2.73;;;1.20;;
3133;SDS011;1577;49.912;10.924;2023-09-19T02:58:17;2.73;;;1.43;;
3133;SDS011;1577;49.912;10.924;2023-09-19T03:00:43;2.50;;;1.27;;
3133;SDS011;1577;49.912;10.924;2023-09-19T03:03:12;4.87;;;1.23;;
3133;SDS011;1577;49.912;10.924;2023-09-19T03:05:38;3.30;;;1.30;;
3133;SDS011;1577;49.912;10.924;2023-09-19T03:08:04;2.57;;;1.23;;
3133;SDS011;1577;49.912;10.924;2023-09-19T03:10:30;2.57;;;1.30;;
3133;SDS011;1577;49.912;10.924;2023-09-19T03:12:56;3.27;;;1.20;;
3133;SDS011;1577;49.912;10.924;2023-09-19T03:15:24;4.10;;;0.93;;
3133;SDS011;1577;49.912;10.924;2023-09-19T03:17:50;3.30;;;1.30;;
3133;SDS011;1577;49.912;10.924;2023-09-19T03:20:18;2.10;;;1.33;;
3133;SDS011;1577;49.912;10.924;2023-09-19T03:22:46;4.27;;;1.43;;
3133;SDS011;1577;49.912;10.924;2023-09-19T03:25:11;2.10;;;1.30;;
3133;SDS011;1577;49.912;10.924;2023-09-19T03:27:38;4.47;;;1.20;;
3133;SDS011;1577;49.912;10.924;2023-09-19T03:30:04;2.13;;;1.20;;
3133;SDS011;1577;49.912;10.924;2023-09-19T03:32:33;4.87;;;1.73;;
3133;SDS011;1577;49.912;10.924;2023-09-19T03:35:00;4.33;;;1.27;;
3133;SDS011;1577;49.912;10.924;2023-09-19T03:37:26;2.10;;;1.20;;
3133;SDS011;1577;49.912;10.924;2023-09-19T03:39:51;4.93;;;1.50;;
3133;SDS011;1577;49.912;10.924;2023-09-19T03:42:17;2.70;;;1.33;;
3133;SDS011;1577;49.912;10.924;2023-09-19T03:44:42;2.23;;;1.20;;
3133;SDS011;1577;49.912;10.924;2023-09-19T03:47:08;3.53;;;1.50;;
3133;SDS011;1577;49.912;10.924;2023-09-19T03:49:33;3.83;;;2.00;;
3133;SDS011;1577;49.912;10.924;2023-09-19T03:51:59;2.93;;;1.40;;
3133;SDS011;1577;49.912;10.924;2023-09-19T03:54:24;4.70;;;1.17;;
3133;SDS011;1577;49.912;10.924;2023-09-19T03:56:50;1.90;;;1.30;;
3133;SDS011;1577;49.912;10.924;2023-09-19T03:59:16;1.93;;;1.30;;
3133;SDS011;1577;49.912;10.924;2023-09-19T04:01:43;2.00;;;1.00;;
3133;SDS011;1577;49.912;10.924;2023-09-19T04:04:09;2.30;;;1.40;;
3133;SDS011;1577;49.912;10.924;2023-09-19T04:06:34;2.67;;;1.20;;
3133;SDS011;1577;49.912;10.924;2023-09-19T04:09:01;3.43;;;1.53;;
3133;SDS011;1577;49.912;10.924;2023-09-19T04:11:28;7.67;;;1.70;;
3133;SDS011;1577;49.912;10.924;2023-09-19T04:13:54;3.83;;;1.67;;
3133;SDS011;1577;49.912;10.924;2023-09-19T04:16:20;4.07;;;1.40;;
3133;SDS011;1577;49.912;10.924;2023-09-19T04:18:45;2.53;;;1.13;;
3133;SDS011;1577;49.912;10.924;2023-09-19T04:21:11;2.90;;;1.33;;
3133;SDS011;1577;49.912;10.924;2023-09-19T04:23:36;4.40;;;1.40;;
3133;SDS011;1577;49.912;10.924;2023-09-19T04:26:02;2.57;;;1.60;;
3133;SDS011;1577;49.912;10.924;2023-09-19T04:28:31;3.50;;;1.30;;
3133;SDS011;1577;49.912;10.924;2023-09-19T04:30:59;3.70;;;1.60;;
3133;SDS011;1577;49.912;10.924;2023-09-19T04:33:25;4.57;;;1.50;;
3133;SDS011;1577;49.912;10.924;2023-09-19T04:35:54;3.40;;;1.57;;
3133;SDS011;1577;49.912;10.924;2023-09-19T04:38:20;2.90;;;1.93;;
3133;SDS011;1577;49.912;10.924;2023-09-19T04:40:46;3.33;;;1.73;;
3133;SDS011;1577;49.912;10.924;2023-09-19T04:43:12;4.23;;;2.00;;
3133;SDS011;1577;49.912;10.924;2023-09-19T04:45:38;2.93;;;1.63;;
3133;SDS011;1577;49.912;10.924;2023-09-19T04:48:04;5.43;;;1.83;;
3133;SDS011;1577;49.912;10.924;2023-09-19T04:50:32;3.00;;;1.80;;
3133;SDS011;1577;49.912;10.924;2023-09-19T04:52:59;4.00;;;1.80;;
3133;SDS011;1577;49.912;10.924;2023-09-19T04:55:25;3.27;;;1.93;;
3133;SDS011;1577;49.912;10.924;2023-09-19T04:57:51;4.87;;;2.20;;
3133;SDS011;1577;49.912;10.924;2023-09-19T05:00:20;5.13;;;2.00;;
3133;SDS011;1577;49.912;10.924;2023-09-19T05:02:52;4.63;;;1.80;;
3133;SDS011;1577;49.912;10.924;2023-09-19T05:05:21;5.90;;;1.90;;
3133;SDS011;1577;49.912;10.924;2023-09-19T05:07:48;3.93;;;2.60;;
3133;SDS011;1577;49.912;10.924;2023-09-19T05:10:14;4.27;;;1.83;;
3133;SDS011;1577;49.912;10.924;2023-09-19T05:12:41;3.67;;;1.90;;
3133;SDS011;1577;49.912;10.924;2023-09-19T05:15:06;3.17;;;1.73;;
3133;SDS011;1577;49.912;10.924;2023-09-19T05:17:33;3.23;;;1.63;;
3133;SDS011;1577;49.912;10.924;2023-09-19T05:19:59;3.27;;;1.80;;
3133;SDS011;1577;49.912;10.924;2023-09-19T05:22:36;3.63;;;1.93;;
3133;SDS011;1577;49.912;10.924;2023-09-19T05:25:05;3.20;;;2.00;;
3133;SDS011;1577;49.912;10.924;2023-09-19T05:27:31;3.07;;;1.90;;
3133;SDS011;1577;49.912;10.924;2023-09-19T05:29:56;2.60;;;1.90;;
3133;SDS011;1577;49.912;10.924;2023-09-19T05:32:22;2.63;;;2.07;;
3133;SDS011;1577;49.912;10.924;2023-09-19T05:34:48;3.40;;;2.10;;
3133;SDS011;1577;49.912;10.924;2023-09-19T05:37:18;2.57;;;1.80;;
3133;SDS011;1577;49.912;10.924;2023-09-19T05:39:43;2.57;;;1.83;;
3133;SDS011;1577;49.912;10.924;2023-09-19T05:42:09;3.80;;;1.80;;
3133;SDS011;1577;49.912;10.924;2023-09-19T05:44:34;5.13;;;1.90;;
3133;SDS011;1577;49.912;10.924;2023-09-19T05:47:01;3.53;;;1.83;;
3133;SDS011;1577;49.912;10.924;2023-09-19T05:49:27;2.20;;;1.67;;
3133;SDS011;1577;49.912;10.924;2023-09-19T05:51:53;2.43;;;1.80;;
3133;SDS011;1577;49.912;10.924;2023-09-19T05:54:21;4.63;;;2.40;;
3133;SDS011;1577;49.912;10.924;2023-09-19T05:56:47;2.90;;;1.73;;
3133;SDS011;1577;49.912;10.924;2023-09-19T05:59:13;5.70;;;1.80;;
3133;SDS011;1577;49.912;10.924;2023-09-19T06:01:41;5.00;;;2.17;;
3133;SDS011;1577;49.912;10.924;2023-09-19T06:04:07;3.17;;;2.20;;
3133;SDS011;1577;49.912;10.924;2023-09-19T06:06:33;4.70;;;1.93;;
3133;SDS011;1577;49.912;10.924;2023-09-19T06:09:05;2.30;;;1.70;;
3133;SDS011;1577;49.912;10.924;2023-09-19T06:11:31;3.17;;;1.70;;
3133;SDS011;1577;49.912;10.924;2023-09-19T06:13:59;2.27;;;1.40;;
3133;SDS011;1577;49.912;10.924;2023-09-19T06:16:27;3.20;;;1.63;;
3133;SDS011;1577;49.912;10.924;2023-09-19T06:18:59;1.90;;;1.23;;
3133;SDS011;1577;49.912;10.924;2023-09-19T06:21:26;3.23;;;1.50;;
3133;SDS011;1577;49.912;10.924;2023-09-19T06:23:55;2.60;;;1.40;;
3133;SDS011;1577;49.912;10.924;2023-09-19T06:26:23;3.50;;;1.23;;
3133;SDS011;1577;49.912;10.924;2023-09-19T06:28:48;2.83;;;1.20;;
3133;SDS011;1577;49.912;10.924;2023-09-19T06:31:14;3.50;;;1.30;;
3133;SDS011;1577;49.912;10.924;2023-09-19T06:33:40;6.60;;;1.20;;
3133;SDS011;1577;49.912;10.924;2023-09-19T06:36:06;3.23;;;1.10;;
3133;SDS011;1577;49.912;10.924;2023-09-19T06:38:32;1.83;;;0.93;;
3133;SDS011;1577;49.912;10.924;2023-09-19T06:41:02;2.63;;;1.17;;
3133;SDS011;1577;49.912;10.924;2023-09-19T06:43:32;2.20;;;1.20;;
3133;SDS011;1577;49.912;10.924;2023-09-19T06:45:58;3.50;;;1.17;;
3133;SDS011;1577;49.912;10.924;2023-09-19T06:48:25;2.43;;;1.00;;
3133;SDS011;1577;49.912;10.924;2023-09-19T06:50:52;5.33;;;1.40;;
3133;SDS011;1577;49.912;10.924;2023-09-19T06:53:18;5.37;;;1.10;;
3133;SDS011;1577;49.912;10.924;2023-09-19T06:55:44;2.30;;;0.90;;
3133;SDS011;1577;49.912;10.924;2023-09-19T06:58:10;2.60;;;1.13;;
3133;SDS011;1577;49.912;10.924;2023-09-19T07:00:36;4.23;;;1.13;;
3133;SDS011;1577;49.912;10.924;2023-09-19T07:03:04;6.30;;;1.53;;
3133;SDS011;1577;49.912;10.924;2023-09-19T07:05:33;2.87;;;0.90;;
3133;SDS011;1577;49.912;10.924;2023-09-19T07:08:02;3.50;;;1.40;;
3133;SDS011;1577;49.912;10.924;2023-09-19T07:10:28;3.00;;;1.00;;
3133;SDS011;1577;49.912;10.924;2023-09-19T07:13:05;9.30;;;1.30;;
3133;SDS011;1577;49.912;10.924;2023-09-19T07:15:36;3.37;;;1.07;;
3133;SDS011;1577;49.912;10.924;2023-09-19T07:18:06;2.53;;;1.17;;
3133;SDS011;1577;49.912;10.924;2023-09-19T07:20:35;6.00;;;1.17;;
3133;SDS011;1577;49.912;10.924;2023-09-19T07:23:03;2.97;;;1.13;;
3133;SDS011;1577;49.912;10.924;2023-09-19T07:25:28;2.70;;;1.00;;
3133;SDS011;1577;49.912;10.924;2023-09-19T07:27:55;3.57;;;1.50;;
3133;SDS011;1577;49.912;10.924;2023-09-19T07:30:25;2.90;;;1.80;;
3133;SDS011;1577;49.912;10.924;2023-09-19T07:32:51;4.20;;;2.07;;
3133;SDS011;1577;49.912;10.924;2023-09-19T07:35:17;3.93;;;1.43;;
3133;SDS011;1577;49.912;10.924;2023-09-19T07:37:47;2.30;;;1.10;;
3133;SDS011;1577;49.912;10.924;2023-09-19T07:40:14;4.70;;;2.20;;
3133;SDS011;1577;49.912;10.924;2023-09-19T07:42:40;2.77;;;1.10;;
3133;SDS011;1577;49.912;10.924;2023-09-19T07:45:07;1.83;;;1.00;;
3133;SDS011;1577;49.912;10.924;2023-09-19T07:47:33;2.80;;;1.20;;
3133;SDS011;1577;49.912;10.924;2023-09-19T07:50:00;2.43;;;1.10;;
3133;SDS011;1577;49.912;10.924;2023-09-19T07:52:27;3.37;;;1.20;;
3133;SDS011;1577;49.912;10.924;2023-09-19T07:54:53;3.40;;;1.40;;
3133;SDS011;1577;49.912;10.924;2023-09-19T07:57:19;2.40;;;1.07;;
3133;SDS011;1577;49.912;10.924;2023-09-19T07:59:45;3.40;;;1.30;;
3133;SDS011;1577;49.912;10.924;2023-09-19T08:02:11;3.27;;;1.10;;
3133;SDS011;1577;49.912;10.924;2023-09-19T08:04:42;3.50;;;1.20;;
3133;SDS011;1577;49.912;10.924;2023-09-19T08:07:08;1.83;;;1.10;;
3133;SDS011;1577;49.912;10.924;2023-09-19T08:09:33;13.53;;;1.83;;
3133;SDS011;1577;49.912;10.924;2023-09-19T08:11:59;4.90;;;1.30;;
3133;SDS011;1577;49.912;10.924;2023-09-19T08:14:27;2.80;;;1.10;;
3133;SDS011;1577;49.912;10.924;2023-09-19T08:16:56;2.47;;;1.10;;
3133;SDS011;1577;49.912;10.924;2023-09-19T08:19:23;2.47;;;1.20;;
3133;SDS011;1577;49.912;10.924;2023-09-19T08:21:53;2.90;;;1.00;;
3133;SDS011;1577;49.912;10.924;2023-09-19T08:24:26;2.73;;;1.10;;
3133;SDS011;1577;49.912;10.924;2023-09-19T08:26:53;3.00;;;1.10;;
3133;SDS011;1577;49.912;10.924;2023-09-19T08:29:19;4.40;;;1.00;;
3133;SDS011;1577;49.912;10.924;2023-09-19T08:31:45;4.10;;;1.20;;
3133;SDS011;1577;49.912;10.924;2023-09-19T08:34:14;3.00;;;1.20;;
3133;SDS011;1577;49.912;10.924;2023-09-19T08:36:40;2.83;;;1.40;;
3133;SDS011;1577;49.912;10.924;2023-09-19T08:39:08;2.30;;;0.97;;
3133;SDS011;1577;49.912;10.924;2023-09-19T08:41:33;2.07;;;1.10;;
3133;SDS011;1577;49.912;10.924;2023-09-19T08:43:59;3.33;;;1.10;;
3133;SDS011;1577;49.912;10.924;2023-09-19T08:46:28;4.47;;;1.27;;
3133;SDS011;1577;49.912;10.924;2023-09-19T08:49:03;2.23;;;1.03;;
3133;SDS011;1577;49.912;10.924;2023-09-19T08:51:33;2.87;;;0.80;;
3133;SDS011;1577;49.912;10.924;2023-09-19T08:54:14;3.60;;;1.67;;
3133;SDS011;1577;49.912;10.924;2023-09-19T08:56:47;2.10;;;1.10;;
3133;SDS011;1577;49.912;10.924;2023-09-19T08:59:13;3.20;;;1.20;;
3133;SDS011;1577;49.912;10.924;2023-09-19T09:01:39;7.93;;;1.67;;
3133;SDS011;1577;49.912;10.924;2023-09-19T09:04:07;3.70;;;1.17;;
3133;SDS011;1577;49.912;10.924;2023-09-19T09:06:34;2.30;;;0.93;;
3133;SDS011;1577;49.912;10.924;2023-09-19T09:09:04;4.33;;;1.00;;
3133;SDS011;1577;49.912;10.924;2023-09-19T09:11:29;3.27;;;0.90;;
3133;SDS011;1577;49.912;10.924;2023-09-19T09:13:58;3.37;;;1.30;;
3133;SDS011;1577;49.912;10.924;2023-09-19T09:16:24;3.27;;;1.10;;
3133;SDS011;1577;49.912;10.924;2023-09-19T09:18:50;3.50;;;1.07;;
3133;SDS011;1577;49.912;10.924;2023-09-19T09:21:19;4.10;;;1.27;;
3133;SDS011;1577;49.912;10.924;2023-09-19T09:23:46;2.77;;;1.00;;
3133;SDS011;1577;49.912;10.924;2023-09-19T09:26:12;2.43;;;1.07;;
3133;SDS011;1577;49.912;10.924;2023-09-19T09:28:44;2.30;;;1.17;;
3133;SDS011;1577;49.912;10.924;2023-09-19T09:31:22;4.17;;;1.00;;
3133;SDS011;1577;49.912;10.924;2023-09-19T09:33:53;2.40;;;1.10;;
3133;SDS011;1577;49.912;10.924;2023-09-19T09:36:32;3.47;;;1.30;;
3133;SDS011;1577;49.912;10.924;2023-09-19T09:39:02;2.30;;;1.00;;
3133;SDS011;1577;49.912;10.924;2023-09-19T09:41:48;4.60;;;1.30;;
3133;SDS011;1577;49.912;10.924;2023-09-19T09:44:17;2.70;;;1.10;;
3133;SDS011;1577;49.912;10.924;2023-09-19T09:46:44;3.73;;;1.53;;
3133;SDS011;1577;49.912;10.924;2023-09-19T09:49:22;3.47;;;1.23;;
3133;SDS011;1577;49.912;10.924;2023-09-19T09:52:02;3.20;;;1.20;;
3133;SDS011;1577;49.912;10.924;2023-09-19T09:54:59;1.87;;;1.03;;
3133;SDS011;1577;49.912;10.924;2023-09-19T09:57:32;2.80;;;1.40;;
3133;SDS011;1577;49.912;10.924;2023-09-19T09:59:59;2.10;;;1.23;;
3133;SDS011;1577;49.912;10.924;2023-09-19T10:02:41;2.93;;;1.20;;
3133;SDS011;1577;49.912;10.924;2023-09-19T10:05:13;3.83;;;1.30;;
3133;SDS011;1577;49.912;10.924;2023-09-19T10:07:40;3.00;;;1.27;;
3133;SDS011;1577;49.912;10.924;2023-09-19T10:10:12;1.90;;;1.13;;
3133;SDS011;1577;49.912;10.924;2023-09-19T10:12:45;5.97;;;1.10;;
3133;SDS011;1577;49.912;10.924;2023-09-19T10:15:13;3.37;;;1.27;;
3133;SDS011;1577;49.912;10.924;2023-09-19T10:17:44;2.80;;;1.30;;
3133;SDS011;1577;49.912;10.924;2023-09-19T10:20:17;3.17;;;1.00;;
3133;SDS011;1577;49.912;10.924;2023-09-19T10:22:58;2.33;;;1.20;;
3133;SDS011;1577;49.912;10.924;2023-09-19T10:25:28;3.77;;;1.30;;
3133;SDS011;1577;49.912;10.924;2023-09-19T10:27:55;3.10;;;1.27;;
3133;SDS011;1577;49.912;10.924;2023-09-19T10:30:24;1.80;;;1.10;;
3133;SDS011;1577;49.912;10.924;2023-09-19T10:32:54;3.00;;;1.27;;
3133;SDS011;1577;49.912;10.924;2023-09-19T10:35:28;3.30;;;1.17;;
3133;SDS011;1577;49.912;10.924;2023-09-19T10:37:55;4.70;;;1.30;;
3133;SDS011;1577;49.912;10.924;2023-09-19T10:40:24;2.77;;;1.20;;
3133;SDS011;1577;49.912;10.924;2023-09-19T10:42:56;3.53;;;1.70;;
3133;SDS011;1577;49.912;10.924;2023-09-19T10:45:31;2.87;;;1.03;;
3133;SDS011;1577;49.912;10.924;2023-09-19T10:47:59;2.80;;;1.20;;
3133;SDS011;1577;49.912;10.924;2023-09-19T10:50:25;3.40;;;1.30;;
3133;SDS011;1577;49.912;10.924;2023-09-19T10:52:56;3.17;;;1.00;;
3133;SDS011;1577;49.912;10.924;2023-09-19T10:55:29;3.60;;;1.20;;
3133;SDS011;1577;49.912;10.924;2023-09-19T10:57:56;2.60;;;1.00;;
3133;SDS011;1577;49.912;10.924;2023-09-19T11:00:52;2.10;;;0.90;;
3133;SDS011;1577;49.912;10.924;2023-09-19T11:03:19;2.07;;;0.93;;
3133;SDS011;1577;49.912;10.924;2023-09-19T11:06:00;3.10;;;1.10;;
3133;SDS011;1577;49.912;10.924;2023-09-19T11:08:28;2.53;;;1.07;;
3133;SDS011;1577;49.912;10.924;2023-09-19T11:10:53;3.50;;;1.07;;
3133;SDS011;1577;49.912;10.924;2023-09-19T11:13:29;3.40;;;1.27;;
3133;SDS011;1577;49.912;10.924;2023-09-19T11:16:04;2.30;;;1.10;;
3133;SDS011;1577;49.912;10.924;2023-09-19T11:21:38;2.60;;;0.97;;
3133;SDS011;1577;49.912;10.924;2023-09-19T11:26:47;2.40;;;1.30;;
3133;SDS011;1577;49.912;10.924;2023-09-19T11:29:32;6.50;;;1.20;;
3133;SDS011;1577;49.912;10.924;2023-09-19T11:31:58;2.60;;;1.40;;
3133;SDS011;1577;49.912;10.924;2023-09-19T11:37:02;2.47;;;1.10;;
3133;SDS011;1577;49.912;10.924;2023-09-19T11:39:29;2.70;;;1.20;;
3133;SDS011;1577;49.912;10.924;2023-09-19T11:41:55;2.40;;;1.13;;
3133;SDS011;1577;49.912;10.924;2023-09-19T11:44:31;3.17;;;1.40;;
3133;SDS011;1577;49.912;10.924;2023-09-19T11:47:03;1.83;;;1.00;;
3133;SDS011;1577;49.912;10.924;2023-09-19T11:49:31;2.03;;;1.00;;
3133;SDS011;1577;49.912;10.924;2023-09-19T11:52:01;6.23;;;1.17;;
3133;SDS011;1577;49.912;10.924;2023-09-19T11:54:30;1.90;;;1.00;;
3133;SDS011;1577;49.912;10.924;2023-09-19T11:56:57;2.10;;;1.00;;
3133;SDS011;1577;49.912;10.924;2023-09-19T11:59:24;7.50;;;1.30;;
3133;SDS011;1577;49.912;10.924;2023-09-19T12:01:58;3.33;;;0.90;;
3133;SDS011;1577;49.912;10.924;2023-09-19T12:04:40;2.17;;;0.93;;
3133;SDS011;1577;49.912;10.924;2023-09-19T12:07:08;2.13;;;1.30;;
3133;SDS011;1577;49.912;10.924;2023-09-19T12:09:40;2.40;;;1.00;;
3133;SDS011;1577;49.912;10.924;2023-09-19T12:12:08;3.10;;;1.27;;
3133;SDS011;1577;49.912;10.924;2023-09-19T12:14:37;5.60;;;1.00;;
3133;SDS011;1577;49.912;10.924;2023-09-19T12:17:04;2.27;;;1.07;;
3133;SDS011;1577;49.912;10.924;2023-09-19T12:19:30;3.47;;;1.10;;
3133;SDS011;1577;49.912;10.924;2023-09-19T12:21:59;3.07;;;0.90;;
3133;SDS011;1577;49.912;10.924;2023-09-19T12:24:34;2.80;;;1.00;;
3133;SDS011;1577;49.912;10.924;2023-09-19T12:27:03;3.63;;;1.33;;
3133;SDS011;1577;49.912;10.924;2023-09-19T12:29:30;2.90;;;1.73;;
3133;SDS011;1577;49.912;10.924;2023-09-19T12:31:57;6.40;;;1.43;;
3133;SDS011;1577;49.912;10.924;2023-09-19T12:34:24;4.90;;;1.10;;
3133;SDS011;1577;49.912;10.924;2023-09-19T12:39:37;3.20;;;1.03;;
3133;SDS011;1577;49.912;10.924;2023-09-19T12:42:10;2.37;;;1.47;;
3133;SDS011;1577;49.912;10.924;2023-09-19T12:44:40;6.07;;;1.30;;
3133;SDS011;1577;49.912;10.924;2023-09-19T12:47:17;9.03;;;1.23;;
3133;SDS011;1577;49.912;10.924;2023-09-19T13:00:43;7.77;;;1.30;;
3133;SDS011;1577;49.912;10.924;2023-09-19T13:03:25;3.60;;;1.30;;
3133;SDS011;1577;49.912;10.924;2023-09-19T13:05:59;3.63;;;1.10;;
3133;SDS011;1577;49.912;10.924;2023-09-19T13:08:28;2.23;;;1.13;;
3133;SDS011;1577;49.912;10.924;2023-09-19T13:11:11;3.87;;;1.13;;
3133;SDS011;1577;49.912;10.924;2023-09-19T13:13:45;3.20;;;1.13;;
3133;SDS011;1577;49.912;10.924;2023-09-19T13:16:13;3.33;;;1.27;;
3133;SDS011;1577;49.912;10.924;2023-09-19T13:18:52;6.63;;;1.43;;
3133;SDS011;1577;49.912;10.924;2023-09-19T13:21:30;2.50;;;1.30;;
3133;SDS011;1577;49.912;10.924;2023-09-19T13:24:17;4.10;;;1.20;;
3133;SDS011;1577;49.912;10.924;2023-09-19T13:26:47;4.57;;;1.10;;
3133;SDS011;1577;49.912;10.924;2023-09-19T13:29:13;4.87;;;1.10;;
3133;SDS011;1577;49.912;10.924;2023-09-19T13:31:45;4.67;;;1.03;;
3133;SDS011;1577;49.912;10.924;2023-09-19T13:34:11;1.80;;;0.90;;
3133;SDS011;1577;49.912;10.924;2023-09-19T13:36:39;1.73;;;0.80;;
3133;SDS011;1577;49.912;10.924;2023-09-19T13:39:04;7.50;;;1.10;;
3133;SDS011;1577;49.912;10.924;2023-09-19T13:41:31;3.43;;;1.10;;
3133;SDS011;1577;49.912;10.924;2023-09-19T13:43:57;2.13;;;0.80;;
3133;SDS011;1577;49.912;10.924;2023-09-19T13:46:23;3.10;;;1.00;;
3133;SDS011;1577;49.912;10.924;2023-09-19T13:48:51;3.67;;;0.90;;
3133;SDS011;1577;49.912;10.924;2023-09-19T13:51:20;4.13;;;1.27;;
3133;SDS011;1577;49.912;10.924;2023-09-19T13:53:50;7.27;;;1.00;;
3133;SDS011;1577;49.912;10.924;2023-09-19T13:56:16;7.73;;;2.33;;
3133;SDS011;1577;49.912;10.924;2023-09-19T13:58:41;6.97;;;1.37;;
3133;SDS011;1577;49.912;10.924;2023-09-19T14:01:07;8.17;;;1.57;;
3133;SDS011;1577;49.912;10.924;2023-09-19T14:03:37;4.93;;;1.30;;
3133;SDS011;1577;49.912;10.924;2023-09-19T14:06:04;4.90;;;1.33;;
3133;SDS011;1577;49.912;10.924;2023-09-19T14:08:29;2.10;;;1.10;;
3133;SDS011;1577;49.912;10.924;2023-09-19T14:10:55;2.80;;;0.90;;
3133;SDS011;1577;49.912;10.924;2023-09-19T14:13:21;3.50;;;1.00;;
3133;SDS011;1577;49.912;10.924;2023-09-19T14:15:46;4.03;;;1.00;;
3133;SDS011;1577;49.912;10.924;2023-09-19T14:18:12;3.27;;;1.10;;
3133;SDS011;1577;49.912;10.924;2023-09-19T14:20:38;2.50;;;1.00;;
3133;SDS011;1577;49.912;10.924;2023-09-19T14:23:07;2.97;;;1.17;;
3133;SDS011;1577;49.912;10.924;2023-09-19T14:25:36;2.27;;;1.13;;
3133;SDS011;1577;49.912;10.924;2023-09-19T14:28:03;4.20;;;1.40;;
3133;SDS011;1577;49.912;10.924;2023-09-19T14:30:29;2.33;;;0.93;;
3133;SDS011;1577;49.912;10.924;2023-09-19T14:32:56;2.00;;;0.90;;
3133;SDS011;1577;49.912;10.924;2023-09-19T14:35:22;1.67;;;0.93;;
3133;SDS011;1577;49.912;10.924;2023-09-19T14:37:48;2.37;;;1.13;;
3133;SDS011;1577;49.912;10.924;2023-09-19T14:40:14;1.93;;;0.97;;
3133;SDS011;1577;49.912;10.924;2023-09-19T14:42:42;2.67;;;0.93;;
3133;SDS011;1577;49.912;10.924;2023-09-19T14:45:10;4.13;;;1.10;;
3133;SDS011;1577;49.912;10.924;2023-09-19T14:47:36;1.97;;;0.90;;
3133;SDS011;1577;49.912;10.924;2023-09-19T14:50:02;2.93;;;1.10;;
3133;SDS011;1577;49.912;10.924;2023-09-19T14:52:32;2.50;;;1.10;;
3133;SDS011;1577;49.912;10.924;2023-09-19T14:54:59;2.27;;;1.20;;
3133;SDS011;1577;49.912;10.924;2023-09-19T14:57:25;4.83;;;0.90;;
3133;SDS011;1577;49.912;10.924;2023-09-19T14:59:51;1.90;;;0.97;;
3133;SDS011;1577;49.912;10.924;2023-09-19T15:02:17;7.27;;;1.27;;
3133;SDS011;1577;49.912;10.924;2023-09-19T15:04:42;5.37;;;1.10;;
3133;SDS011;1577;49.912;10.924;2023-09-19T15:07:09;1.80;;;1.00;;
3133;SDS011;1577;49.912;10.924;2023-09-19T15:09:35;2.03;;;1.03;;
3133;SDS011;1577;49.912;10.924;2023-09-19T15:12:01;2.43;;;1.07;;
3133;SDS011;1577;49.912;10.924;2023-09-19T15:14:27;2.30;;;0.90;;
3133;SDS011;1577;49.912;10.924;2023-09-19T15:16:54;3.50;;;0.90;;
3133;SDS011;1577;49.912;10.924;2023-09-19T15:19:20;3.10;;;1.10;;
3133;SDS011;1577;49.912;10.924;2023-09-19T15:21:47;3.33;;;1.10;;
3133;SDS011;1577;49.912;10.924;2023-09-19T15:24:13;3.57;;;0.87;;
3133;SDS011;1577;49.912;10.924;2023-09-19T15:26:40;2.80;;;1.00;;
3133;SDS011;1577;49.912;10.924;2023-09-19T15:29:06;5.13;;;2.80;;
3133;SDS011;1577;49.912;10.924;2023-09-19T15:31:32;2.73;;;1.10;;
3133;SDS011;1577;49.912;10.924;2023-09-19T15:33:58;6.80;;;1.10;;
3133;SDS011;1577;49.912;10.924;2023-09-19T15:36:24;1.77;;;0.90;;
3133;SDS011;1577;49.912;10.924;2023-09-19T15:41:18;2.03;;;1.03;;
3133;SDS011;1577;49.912;10.924;2023-09-19T15:43:45;2.20;;;0.93;;